sensor_id;sensor_type;location;lat;lon;timestamp;P1;durP1;ratioP1;P2;durP2;ratioP2
29906;SDS011;16776;50.958;10.994;2024-02-26T00:00:52;1.08;;;0.90;;
29906;SDS011;16776;50.958;10.994;2024-02-26T00:03:19;1.40;;;0.70;;
29906;SDS011;16776;50.958;10.994;2024-02-26T00:05:45;0.80;;;0.80;;
29906;SDS011;16776;50.958;10.994;2024-02-26T00:08:13;1.65;;;0.80;;
29906;SDS011;16776;50.958;10.994;2024-02-26T00:10:40;0.80;;;0.80;;
29906;SDS011;16776;50.958;10.994;2024-02-26T00:13:07;1.15;;;0.70;;
29906;SDS011;16776;50.958;10.994;2024-02-26T00:15:34;0.77;;;0.52;;
29906;SDS011;16776;50.958;10.994;2024-02-26T00:18:01;0.93;;;0.70;;
29906;SDS011;16776;50.958;10.994;2024-02-26T00:20:27;0.57;;;0.57;;
29906;SDS011;16776;50.958;10.994;2024-02-26T00:22:54;1.58;;;0.95;;
29906;SDS011;16776;50.958;10.994;2024-02-26T00:25:22;1.10;;;0.80;;
29906;SDS011;16776;50.958;10.994;2024-02-26T00:27:48;0.90;;;0.70;;
29906;SDS011;16776;50.958;10.994;2024-02-26T00:30:15;1.48;;;0.95;;
29906;SDS011;16776;50.958;10.994;2024-02-26T00:32:41;1.17;;;0.70;;
29906;SDS011;16776;50.958;10.994;2024-02-26T00:35:08;1.10;;;1.00;;
29906;SDS011;16776;50.958;10.994;2024-02-26T00:37:35;1.85;;;0.70;;
29906;SDS011;16776;50.958;10.994;2024-02-26T00:40:02;1.17;;;0.80;;
29906;SDS011;16776;50.958;10.994;2024-02-26T00:42:30;0.60;;;0.60;;
29906;SDS011;16776;50.958;10.994;2024-02-26T00:44:57;0.70;;;0.70;;
29906;SDS011;16776;50.958;10.994;2024-02-26T00:47:23;1.23;;;0.85;;
29906;SDS011;16776;50.958;10.994;2024-02-26T00:49:50;0.82;;;0.73;;
29906;SDS011;16776;50.958;10.994;2024-02-26T00:52:16;0.90;;;0.63;;
29906;SDS011;16776;50.958;10.994;2024-02-26T00:54:43;0.70;;;0.70;;
29906;SDS011;16776;50.958;10.994;2024-02-26T00:57:09;0.63;;;0.63;;
29906;SDS011;16776;50.958;10.994;2024-02-26T00:59:38;1.05;;;0.80;;
29906;SDS011;16776;50.958;10.994;2024-02-26T01:02:04;1.20;;;0.90;;
29906;SDS011;16776;50.958;10.994;2024-02-26T01:04:31;0.88;;;0.70;;
29906;SDS011;16776;50.958;10.994;2024-02-26T01:06:59;0.80;;;0.70;;
29906;SDS011;16776;50.958;10.994;2024-02-26T01:09:25;1.05;;;0.80;;
29906;SDS011;16776;50.958;10.994;2024-02-26T01:11:52;3.42;;;0.82;;
29906;SDS011;16776;50.958;10.994;2024-02-26T01:14:18;1.42;;;1.10;;
29906;SDS011;16776;50.958;10.994;2024-02-26T01:16:46;1.40;;;1.00;;
29906;SDS011;16776;50.958;10.994;2024-02-26T01:19:13;1.05;;;0.93;;
29906;SDS011;16776;50.958;10.994;2024-02-26T01:21:40;0.80;;;0.80;;
29906;SDS011;16776;50.958;10.994;2024-02-26T01:24:07;1.30;;;0.90;;
29906;SDS011;16776;50.958;10.994;2024-02-26T01:26:33;1.38;;;0.90;;
29906;SDS011;16776;50.958;10.994;2024-02-26T01:29:00;1.20;;;0.90;;
29906;SDS011;16776;50.958;10.994;2024-02-26T01:31:26;1.25;;;0.80;;
29906;SDS011;16776;50.958;10.994;2024-02-26T01:33:54;0.70;;;0.60;;
29906;SDS011;16776;50.958;10.994;2024-02-26T01:36:21;1.33;;;0.80;;
29906;SDS011;16776;50.958;10.994;2024-02-26T01:38:47;0.70;;;0.50;;
29906;SDS011;16776;50.958;10.994;2024-02-26T01:41:14;1.05;;;0.80;;
29906;SDS011;16776;50.958;10.994;2024-02-26T01:43:41;1.65;;;0.73;;
29906;SDS011;16776;50.958;10.994;2024-02-26T01:46:07;0.95;;;0.60;;
29906;SDS011;16776;50.958;10.994;2024-02-26T01:48:40;0.98;;;0.68;;
29906;SDS011;16776;50.958;10.994;2024-02-26T01:51:08;1.17;;;0.85;;
29906;SDS011;16776;50.958;10.994;2024-02-26T01:53:36;0.82;;;0.40;;
29906;SDS011;16776;50.958;10.994;2024-02-26T01:56:03;1.55;;;0.70;;
29906;SDS011;16776;50.958;10.994;2024-02-26T01:58:30;0.70;;;0.68;;
29906;SDS011;16776;50.958;10.994;2024-02-26T02:00:58;1.58;;;0.60;;
29906;SDS011;16776;50.958;10.994;2024-02-26T02:03:25;0.75;;;0.75;;
29906;SDS011;16776;50.958;10.994;2024-02-26T02:05:52;1.17;;;0.70;;
29906;SDS011;16776;50.958;10.994;2024-02-26T02:08:20;1.50;;;0.73;;
29906;SDS011;16776;50.958;10.994;2024-02-26T02:10:49;0.90;;;0.70;;
29906;SDS011;16776;50.958;10.994;2024-02-26T02:13:16;1.58;;;0.90;;
29906;SDS011;16776;50.958;10.994;2024-02-26T02:15:42;0.93;;;0.90;;
29906;SDS011;16776;50.958;10.994;2024-02-26T02:18:09;1.67;;;1.17;;
29906;SDS011;16776;50.958;10.994;2024-02-26T02:20:37;1.60;;;0.82;;
29906;SDS011;16776;50.958;10.994;2024-02-26T02:23:04;1.98;;;0.90;;
29906;SDS011;16776;50.958;10.994;2024-02-26T02:25:30;0.60;;;0.60;;
29906;SDS011;16776;50.958;10.994;2024-02-26T02:27:57;0.73;;;0.68;;
29906;SDS011;16776;50.958;10.994;2024-02-26T02:30:24;0.65;;;0.60;;
29906;SDS011;16776;50.958;10.994;2024-02-26T02:32:54;1.25;;;0.90;;
29906;SDS011;16776;50.958;10.994;2024-02-26T02:35:21;1.55;;;0.70;;
29906;SDS011;16776;50.958;10.994;2024-02-26T02:37:49;0.88;;;0.75;;
29906;SDS011;16776;50.958;10.994;2024-02-26T02:40:17;0.65;;;0.52;;
29906;SDS011;16776;50.958;10.994;2024-02-26T02:42:43;0.88;;;0.80;;
29906;SDS011;16776;50.958;10.994;2024-02-26T02:45:10;0.73;;;0.70;;
29906;SDS011;16776;50.958;10.994;2024-02-26T02:47:36;1.20;;;0.70;;
29906;SDS011;16776;50.958;10.994;2024-02-26T02:50:03;0.93;;;0.70;;
29906;SDS011;16776;50.958;10.994;2024-02-26T02:52:31;0.98;;;0.60;;
29906;SDS011;16776;50.958;10.994;2024-02-26T02:54:59;1.17;;;0.70;;
29906;SDS011;16776;50.958;10.994;2024-02-26T02:57:25;1.75;;;0.77;;
29906;SDS011;16776;50.958;10.994;2024-02-26T02:59:52;1.10;;;0.75;;
29906;SDS011;16776;50.958;10.994;2024-02-26T03:02:18;1.98;;;0.90;;
29906;SDS011;16776;50.958;10.994;2024-02-26T03:04:45;1.00;;;0.70;;
29906;SDS011;16776;50.958;10.994;2024-02-26T03:07:11;2.03;;;0.80;;
29906;SDS011;16776;50.958;10.994;2024-02-26T03:09:38;2.45;;;0.70;;
29906;SDS011;16776;50.958;10.994;2024-02-26T03:12:07;1.58;;;0.93;;
29906;SDS011;16776;50.958;10.994;2024-02-26T03:14:34;1.65;;;1.05;;
29906;SDS011;16776;50.958;10.994;2024-02-26T03:17:01;1.35;;;0.70;;
29906;SDS011;16776;50.958;10.994;2024-02-26T03:19:27;0.85;;;0.75;;
29906;SDS011;16776;50.958;10.994;2024-02-26T03:21:54;0.70;;;0.70;;
29906;SDS011;16776;50.958;10.994;2024-02-26T03:24:20;1.35;;;0.88;;
29906;SDS011;16776;50.958;10.994;2024-02-26T03:26:47;0.88;;;0.77;;
29906;SDS011;16776;50.958;10.994;2024-02-26T03:29:15;0.93;;;0.88;;
29906;SDS011;16776;50.958;10.994;2024-02-26T03:31:41;1.08;;;0.90;;
29906;SDS011;16776;50.958;10.994;2024-02-26T03:34:08;1.02;;;0.93;;
29906;SDS011;16776;50.958;10.994;2024-02-26T03:36:36;2.45;;;1.00;;
29906;SDS011;16776;50.958;10.994;2024-02-26T03:39:03;1.27;;;1.10;;
29906;SDS011;16776;50.958;10.994;2024-02-26T03:41:32;1.80;;;1.10;;
29906;SDS011;16776;50.958;10.994;2024-02-26T03:43:59;1.20;;;1.08;;
29906;SDS011;16776;50.958;10.994;2024-02-26T03:46:27;1.25;;;1.00;;
29906;SDS011;16776;50.958;10.994;2024-02-26T03:48:53;2.47;;;1.13;;
29906;SDS011;16776;50.958;10.994;2024-02-26T03:51:20;0.95;;;0.73;;
29906;SDS011;16776;50.958;10.994;2024-02-26T03:53:47;1.52;;;1.25;;
29906;SDS011;16776;50.958;10.994;2024-02-26T03:56:13;1.50;;;1.20;;
29906;SDS011;16776;50.958;10.994;2024-02-26T03:58:40;1.48;;;1.00;;
29906;SDS011;16776;50.958;10.994;2024-02-26T04:01:07;1.27;;;1.17;;
29906;SDS011;16776;50.958;10.994;2024-02-26T04:03:35;1.75;;;1.10;;
29906;SDS011;16776;50.958;10.994;2024-02-26T04:06:02;1.80;;;1.23;;
29906;SDS011;16776;50.958;10.994;2024-02-26T04:08:29;1.73;;;1.20;;
29906;SDS011;16776;50.958;10.994;2024-02-26T04:10:56;1.60;;;1.10;;
29906;SDS011;16776;50.958;10.994;2024-02-26T04:13:22;1.70;;;1.20;;
29906;SDS011;16776;50.958;10.994;2024-02-26T04:15:49;1.48;;;1.30;;
29906;SDS011;16776;50.958;10.994;2024-02-26T04:18:16;1.92;;;1.48;;
29906;SDS011;16776;50.958;10.994;2024-02-26T04:20:44;1.60;;;1.48;;
29906;SDS011;16776;50.958;10.994;2024-02-26T04:23:10;2.10;;;1.17;;
29906;SDS011;16776;50.958;10.994;2024-02-26T04:25:37;1.15;;;0.98;;
29906;SDS011;16776;50.958;10.994;2024-02-26T04:28:03;1.23;;;1.13;;
29906;SDS011;16776;50.958;10.994;2024-02-26T04:30:30;1.42;;;1.33;;
29906;SDS011;16776;50.958;10.994;2024-02-26T04:32:57;2.10;;;1.40;;
29906;SDS011;16776;50.958;10.994;2024-02-26T04:35:23;1.40;;;1.20;;
29906;SDS011;16776;50.958;10.994;2024-02-26T04:37:51;1.95;;;1.33;;
29906;SDS011;16776;50.958;10.994;2024-02-26T04:40:18;1.88;;;1.60;;
29906;SDS011;16776;50.958;10.994;2024-02-26T04:42:44;3.53;;;1.48;;
29906;SDS011;16776;50.958;10.994;2024-02-26T04:45:11;1.40;;;1.30;;
29906;SDS011;16776;50.958;10.994;2024-02-26T04:47:38;1.55;;;1.02;;
29906;SDS011;16776;50.958;10.994;2024-02-26T04:50:05;1.98;;;1.60;;
29906;SDS011;16776;50.958;10.994;2024-02-26T04:52:32;2.58;;;1.52;;
29906;SDS011;16776;50.958;10.994;2024-02-26T04:55:00;2.17;;;1.45;;
29906;SDS011;16776;50.958;10.994;2024-02-26T04:57:27;3.72;;;1.50;;
29906;SDS011;16776;50.958;10.994;2024-02-26T04:59:54;2.92;;;1.60;;
29906;SDS011;16776;50.958;10.994;2024-02-26T05:02:20;2.05;;;1.48;;
29906;SDS011;16776;50.958;10.994;2024-02-26T05:04:47;2.03;;;1.35;;
29906;SDS011;16776;50.958;10.994;2024-02-26T05:07:13;1.75;;;1.25;;
29906;SDS011;16776;50.958;10.994;2024-02-26T05:09:42;1.92;;;1.40;;
29906;SDS011;16776;50.958;10.994;2024-02-26T05:12:10;1.83;;;1.40;;
29906;SDS011;16776;50.958;10.994;2024-02-26T05:14:37;1.08;;;1.08;;
29906;SDS011;16776;50.958;10.994;2024-02-26T05:17:03;1.52;;;0.95;;
29906;SDS011;16776;50.958;10.994;2024-02-26T05:19:31;1.95;;;1.40;;
29906;SDS011;16776;50.958;10.994;2024-02-26T05:21:57;1.80;;;1.17;;
29906;SDS011;16776;50.958;10.994;2024-02-26T05:24:24;1.88;;;1.10;;
29906;SDS011;16776;50.958;10.994;2024-02-26T05:26:50;1.50;;;1.10;;
29906;SDS011;16776;50.958;10.994;2024-02-26T05:29:18;1.10;;;1.00;;
29906;SDS011;16776;50.958;10.994;2024-02-26T05:31:45;1.40;;;1.17;;
29906;SDS011;16776;50.958;10.994;2024-02-26T05:34:11;1.27;;;0.95;;
29906;SDS011;16776;50.958;10.994;2024-02-26T05:36:38;2.25;;;1.27;;
29906;SDS011;16776;50.958;10.994;2024-02-26T05:39:05;1.27;;;0.90;;
29906;SDS011;16776;50.958;10.994;2024-02-26T05:41:32;2.92;;;1.50;;
29906;SDS011;16776;50.958;10.994;2024-02-26T05:43:58;4.90;;;0.52;;
29906;SDS011;16776;50.958;10.994;2024-02-26T05:46:26;1.83;;;1.00;;
29906;SDS011;16776;50.958;10.994;2024-02-26T05:48:53;0.98;;;0.85;;
29906;SDS011;16776;50.958;10.994;2024-02-26T05:51:20;1.50;;;0.95;;
29906;SDS011;16776;50.958;10.994;2024-02-26T05:53:46;0.80;;;0.80;;
29906;SDS011;16776;50.958;10.994;2024-02-26T05:56:18;1.23;;;0.90;;
29906;SDS011;16776;50.958;10.994;2024-02-26T05:58:45;4.78;;;1.45;;
29906;SDS011;16776;50.958;10.994;2024-02-26T06:01:12;6.53;;;2.03;;
29906;SDS011;16776;50.958;10.994;2024-02-26T06:03:40;6.90;;;1.92;;
29906;SDS011;16776;50.958;10.994;2024-02-26T06:06:06;3.72;;;1.40;;
29906;SDS011;16776;50.958;10.994;2024-02-26T06:08:33;3.47;;;2.20;;
29906;SDS011;16776;50.958;10.994;2024-02-26T06:10:59;3.67;;;1.42;;
29906;SDS011;16776;50.958;10.994;2024-02-26T06:13:31;3.10;;;1.30;;
29906;SDS011;16776;50.958;10.994;2024-02-26T06:15:58;1.58;;;1.23;;
29906;SDS011;16776;50.958;10.994;2024-02-26T06:18:24;1.17;;;1.10;;
29906;SDS011;16776;50.958;10.994;2024-02-26T06:20:52;1.23;;;0.93;;
29906;SDS011;16776;50.958;10.994;2024-02-26T06:23:19;3.17;;;1.20;;
29906;SDS011;16776;50.958;10.994;2024-02-26T06:25:45;2.03;;;1.40;;
29906;SDS011;16776;50.958;10.994;2024-02-26T06:28:13;1.25;;;1.10;;
29906;SDS011;16776;50.958;10.994;2024-02-26T06:30:39;1.45;;;1.33;;
29906;SDS011;16776;50.958;10.994;2024-02-26T06:33:06;2.15;;;1.40;;
29906;SDS011;16776;50.958;10.994;2024-02-26T06:35:32;2.67;;;1.48;;
29906;SDS011;16776;50.958;10.994;2024-02-26T06:38:00;3.25;;;1.17;;
29906;SDS011;16776;50.958;10.994;2024-02-26T06:40:27;1.88;;;1.50;;
29906;SDS011;16776;50.958;10.994;2024-02-26T06:42:54;1.50;;;1.27;;
29906;SDS011;16776;50.958;10.994;2024-02-26T06:45:21;1.52;;;1.17;;
29906;SDS011;16776;50.958;10.994;2024-02-26T06:47:47;1.20;;;1.10;;
29906;SDS011;16776;50.958;10.994;2024-02-26T06:50:14;1.40;;;1.20;;
29906;SDS011;16776;50.958;10.994;2024-02-26T06:52:40;1.70;;;1.40;;
29906;SDS011;16776;50.958;10.994;2024-02-26T06:55:08;2.35;;;1.33;;
29906;SDS011;16776;50.958;10.994;2024-02-26T06:57:35;3.95;;;1.67;;
29906;SDS011;16776;50.958;10.994;2024-02-26T07:00:02;1.65;;;1.50;;
29906;SDS011;16776;50.958;10.994;2024-02-26T07:02:29;1.50;;;1.40;;
29906;SDS011;16776;50.958;10.994;2024-02-26T07:04:56;1.45;;;1.10;;
29906;SDS011;16776;50.958;10.994;2024-02-26T07:07:23;1.73;;;1.25;;
29906;SDS011;16776;50.958;10.994;2024-02-26T07:09:49;3.55;;;1.60;;
29906;SDS011;16776;50.958;10.994;2024-02-26T07:12:18;2.03;;;1.70;;
29906;SDS011;16776;50.958;10.994;2024-02-26T07:14:46;4.07;;;2.20;;
29906;SDS011;16776;50.958;10.994;2024-02-26T07:17:12;4.05;;;2.50;;
29906;SDS011;16776;50.958;10.994;2024-02-26T07:19:41;4.57;;;2.60;;
29906;SDS011;16776;50.958;10.994;2024-02-26T07:22:08;5.53;;;2.67;;
29906;SDS011;16776;50.958;10.994;2024-02-26T07:24:34;3.20;;;2.50;;
29906;SDS011;16776;50.958;10.994;2024-02-26T07:27:01;4.47;;;2.40;;
29906;SDS011;16776;50.958;10.994;2024-02-26T07:29:29;5.50;;;2.58;;
29906;SDS011;16776;50.958;10.994;2024-02-26T07:31:55;4.15;;;2.47;;
29906;SDS011;16776;50.958;10.994;2024-02-26T07:34:22;3.65;;;2.50;;
29906;SDS011;16776;50.958;10.994;2024-02-26T07:36:52;2.70;;;2.38;;
29906;SDS011;16776;50.958;10.994;2024-02-26T07:39:19;7.30;;;2.42;;
29906;SDS011;16776;50.958;10.994;2024-02-26T07:41:45;5.15;;;2.30;;
29906;SDS011;16776;50.958;10.994;2024-02-26T07:44:14;3.83;;;2.60;;
29906;SDS011;16776;50.958;10.994;2024-02-26T07:46:42;2.80;;;2.05;;
29906;SDS011;16776;50.958;10.994;2024-02-26T07:49:09;3.22;;;1.88;;
29906;SDS011;16776;50.958;10.994;2024-02-26T07:51:35;3.38;;;2.05;;
29906;SDS011;16776;50.958;10.994;2024-02-26T07:54:02;2.35;;;1.80;;
29906;SDS011;16776;50.958;10.994;2024-02-26T07:56:29;3.05;;;2.35;;
29906;SDS011;16776;50.958;10.994;2024-02-26T07:58:55;2.35;;;2.13;;
29906;SDS011;16776;50.958;10.994;2024-02-26T08:01:22;4.30;;;2.40;;
29906;SDS011;16776;50.958;10.994;2024-02-26T08:03:52;3.15;;;2.45;;
29906;SDS011;16776;50.958;10.994;2024-02-26T08:06:19;3.65;;;2.25;;
29906;SDS011;16776;50.958;10.994;2024-02-26T08:08:45;4.32;;;2.25;;
29906;SDS011;16776;50.958;10.994;2024-02-26T08:11:14;3.08;;;2.33;;
29906;SDS011;16776;50.958;10.994;2024-02-26T08:13:40;3.75;;;2.90;;
29906;SDS011;16776;50.958;10.994;2024-02-26T08:16:07;5.68;;;3.65;;
29906;SDS011;16776;50.958;10.994;2024-02-26T08:18:34;6.82;;;3.97;;
29906;SDS011;16776;50.958;10.994;2024-02-26T08:21:02;5.70;;;3.45;;
29906;SDS011;16776;50.958;10.994;2024-02-26T08:23:29;8.13;;;4.70;;
29906;SDS011;16776;50.958;10.994;2024-02-26T08:25:56;6.40;;;4.60;;
29906;SDS011;16776;50.958;10.994;2024-02-26T08:28:22;8.05;;;4.20;;
29906;SDS011;16776;50.958;10.994;2024-02-26T08:30:49;8.20;;;5.20;;
29906;SDS011;16776;50.958;10.994;2024-02-26T08:33:16;8.20;;;4.95;;
29906;SDS011;16776;50.958;10.994;2024-02-26T08:35:43;7.75;;;4.95;;
29906;SDS011;16776;50.958;10.994;2024-02-26T08:38:11;9.13;;;4.93;;
29906;SDS011;16776;50.958;10.994;2024-02-26T08:40:37;9.95;;;5.50;;
29906;SDS011;16776;50.958;10.994;2024-02-26T08:43:04;7.22;;;4.93;;
29906;SDS011;16776;50.958;10.994;2024-02-26T08:45:30;9.68;;;5.20;;
29906;SDS011;16776;50.958;10.994;2024-02-26T08:47:57;8.95;;;6.25;;
29906;SDS011;16776;50.958;10.994;2024-02-26T08:50:24;10.13;;;6.30;;
29906;SDS011;16776;50.958;10.994;2024-02-26T08:52:51;9.43;;;5.80;;
29906;SDS011;16776;50.958;10.994;2024-02-26T08:55:19;9.57;;;6.10;;
29906;SDS011;16776;50.958;10.994;2024-02-26T08:57:46;10.23;;;6.53;;
29906;SDS011;16776;50.958;10.994;2024-02-26T09:00:13;9.88;;;6.30;;
29906;SDS011;16776;50.958;10.994;2024-02-26T09:02:42;9.68;;;6.18;;
29906;SDS011;16776;50.958;10.994;2024-02-26T09:05:09;9.07;;;6.05;;
29906;SDS011;16776;50.958;10.994;2024-02-26T09:07:36;9.55;;;5.85;;
29906;SDS011;16776;50.958;10.994;2024-02-26T09:10:03;10.63;;;5.80;;
29906;SDS011;16776;50.958;10.994;2024-02-26T09:12:31;9.23;;;5.95;;
29906;SDS011;16776;50.958;10.994;2024-02-26T09:14:58;8.57;;;5.40;;
29906;SDS011;16776;50.958;10.994;2024-02-26T09:17:24;8.38;;;5.28;;
29906;SDS011;16776;50.958;10.994;2024-02-26T09:19:51;8.18;;;5.45;;
29906;SDS011;16776;50.958;10.994;2024-02-26T09:22:17;8.93;;;5.30;;
29906;SDS011;16776;50.958;10.994;2024-02-26T09:24:44;13.10;;;6.60;;
29906;SDS011;16776;50.958;10.994;2024-02-26T09:27:10;10.55;;;6.10;;
29906;SDS011;16776;50.958;10.994;2024-02-26T09:29:38;9.63;;;6.22;;
29906;SDS011;16776;50.958;10.994;2024-02-26T09:32:05;7.10;;;4.80;;
29906;SDS011;16776;50.958;10.994;2024-02-26T09:34:32;9.43;;;5.95;;
29906;SDS011;16776;50.958;10.994;2024-02-26T09:36:59;7.60;;;5.00;;
29906;SDS011;16776;50.958;10.994;2024-02-26T09:39:26;8.40;;;5.55;;
29906;SDS011;16776;50.958;10.994;2024-02-26T09:41:53;11.20;;;6.05;;
29906;SDS011;16776;50.958;10.994;2024-02-26T09:44:19;9.70;;;5.20;;
29906;SDS011;16776;50.958;10.994;2024-02-26T09:46:48;8.32;;;5.30;;
29906;SDS011;16776;50.958;10.994;2024-02-26T09:49:15;7.88;;;5.18;;
29906;SDS011;16776;50.958;10.994;2024-02-26T09:51:43;9.45;;;5.68;;
29906;SDS011;16776;50.958;10.994;2024-02-26T09:54:09;8.07;;;5.15;;
29906;SDS011;16776;50.958;10.994;2024-02-26T09:56:38;14.82;;;5.93;;
29906;SDS011;16776;50.958;10.994;2024-02-26T09:59:05;8.15;;;5.90;;
29906;SDS011;16776;50.958;10.994;2024-02-26T10:01:36;9.93;;;6.40;;
29906;SDS011;16776;50.958;10.994;2024-02-26T10:04:06;11.63;;;6.50;;
29906;SDS011;16776;50.958;10.994;2024-02-26T10:06:36;9.98;;;5.97;;
29906;SDS011;16776;50.958;10.994;2024-02-26T10:09:03;9.52;;;5.68;;
29906;SDS011;16776;50.958;10.994;2024-02-26T10:11:34;10.10;;;6.55;;
29906;SDS011;16776;50.958;10.994;2024-02-26T10:14:01;9.52;;;6.68;;
29906;SDS011;16776;50.958;10.994;2024-02-26T10:16:28;9.30;;;6.57;;
29906;SDS011;16776;50.958;10.994;2024-02-26T10:18:55;10.27;;;6.95;;
29906;SDS011;16776;50.958;10.994;2024-02-26T10:21:23;10.88;;;7.20;;
29906;SDS011;16776;50.958;10.994;2024-02-26T10:23:50;10.43;;;6.68;;
29906;SDS011;16776;50.958;10.994;2024-02-26T10:26:16;8.70;;;6.45;;
29906;SDS011;16776;50.958;10.994;2024-02-26T10:28:43;9.50;;;6.50;;
29906;SDS011;16776;50.958;10.994;2024-02-26T10:31:11;8.43;;;5.85;;
29906;SDS011;16776;50.958;10.994;2024-02-26T10:33:38;13.13;;;6.75;;
29906;SDS011;16776;50.958;10.994;2024-02-26T10:36:05;13.73;;;8.93;;
29906;SDS011;16776;50.958;10.994;2024-02-26T10:38:34;14.68;;;9.10;;
29906;SDS011;16776;50.958;10.994;2024-02-26T10:41:02;12.38;;;7.88;;
29906;SDS011;16776;50.958;10.994;2024-02-26T10:43:29;11.63;;;8.02;;
29906;SDS011;16776;50.958;10.994;2024-02-26T10:45:56;12.73;;;7.80;;
29906;SDS011;16776;50.958;10.994;2024-02-26T10:48:22;12.57;;;7.68;;
29906;SDS011;16776;50.958;10.994;2024-02-26T10:50:49;12.25;;;7.88;;
29906;SDS011;16776;50.958;10.994;2024-02-26T10:53:17;10.60;;;6.60;;
29906;SDS011;16776;50.958;10.994;2024-02-26T10:55:48;11.07;;;6.90;;
29906;SDS011;16776;50.958;10.994;2024-02-26T10:58:17;8.95;;;6.40;;
29906;SDS011;16776;50.958;10.994;2024-02-26T11:00:45;9.27;;;6.88;;
29906;SDS011;16776;50.958;10.994;2024-02-26T11:03:13;9.18;;;5.88;;
29906;SDS011;16776;50.958;10.994;2024-02-26T11:05:42;8.57;;;6.25;;
29906;SDS011;16776;50.958;10.994;2024-02-26T11:08:10;10.98;;;7.13;;
29906;SDS011;16776;50.958;10.994;2024-02-26T11:10:37;14.55;;;7.00;;
29906;SDS011;16776;50.958;10.994;2024-02-26T11:13:08;10.15;;;6.57;;
29906;SDS011;16776;50.958;10.994;2024-02-26T11:15:36;9.02;;;6.57;;
29906;SDS011;16776;50.958;10.994;2024-02-26T11:18:03;8.85;;;6.38;;
29906;SDS011;16776;50.958;10.994;2024-02-26T11:20:30;13.60;;;6.20;;
29906;SDS011;16776;50.958;10.994;2024-02-26T11:22:59;10.63;;;6.35;;
29906;SDS011;16776;50.958;10.994;2024-02-26T11:25:26;8.68;;;6.10;;
29906;SDS011;16776;50.958;10.994;2024-02-26T11:27:53;9.90;;;6.57;;
29906;SDS011;16776;50.958;10.994;2024-02-26T11:30:24;10.68;;;6.32;;
29906;SDS011;16776;50.958;10.994;2024-02-26T11:32:56;7.97;;;5.65;;
29906;SDS011;16776;50.958;10.994;2024-02-26T11:35:23;9.30;;;6.45;;
29906;SDS011;16776;50.958;10.994;2024-02-26T11:37:53;9.43;;;5.90;;
29906;SDS011;16776;50.958;10.994;2024-02-26T11:40:21;7.82;;;5.78;;
29906;SDS011;16776;50.958;10.994;2024-02-26T11:42:49;7.88;;;5.57;;
29906;SDS011;16776;50.958;10.994;2024-02-26T11:48:22;8.77;;;5.95;;
29906;SDS011;16776;50.958;10.994;2024-02-26T11:50:50;9.15;;;5.90;;
29906;SDS011;16776;50.958;10.994;2024-02-26T11:53:25;10.23;;;6.90;;
29906;SDS011;16776;50.958;10.994;2024-02-26T11:58:48;8.63;;;5.93;;
29906;SDS011;16776;50.958;10.994;2024-02-26T12:04:07;11.93;;;6.25;;
29906;SDS011;16776;50.958;10.994;2024-02-26T12:06:47;8.45;;;5.30;;
29906;SDS011;16776;50.958;10.994;2024-02-26T12:09:34;7.85;;;5.65;;
29906;SDS011;16776;50.958;10.994;2024-02-26T12:12:02;8.45;;;5.65;;
29906;SDS011;16776;50.958;10.994;2024-02-26T12:14:32;9.25;;;6.28;;
29906;SDS011;16776;50.958;10.994;2024-02-26T12:17:01;9.45;;;6.32;;
29906;SDS011;16776;50.958;10.994;2024-02-26T12:19:32;8.95;;;6.03;;
29906;SDS011;16776;50.958;10.994;2024-02-26T12:21:58;10.15;;;6.38;;
29906;SDS011;16776;50.958;10.994;2024-02-26T12:24:25;10.43;;;6.60;;
29906;SDS011;16776;50.958;10.994;2024-02-26T12:26:52;10.25;;;6.15;;
29906;SDS011;16776;50.958;10.994;2024-02-26T12:29:18;10.73;;;6.43;;
29906;SDS011;16776;50.958;10.994;2024-02-26T12:31:45;8.23;;;5.68;;
29906;SDS011;16776;50.958;10.994;2024-02-26T12:34:13;8.93;;;5.82;;
29906;SDS011;16776;50.958;10.994;2024-02-26T12:36:41;8.93;;;5.82;;
29906;SDS011;16776;50.958;10.994;2024-02-26T12:39:08;10.25;;;7.00;;
29906;SDS011;16776;50.958;10.994;2024-02-26T12:41:37;9.77;;;6.72;;
29906;SDS011;16776;50.958;10.994;2024-02-26T12:44:04;9.35;;;6.72;;
29906;SDS011;16776;50.958;10.994;2024-02-26T12:46:32;10.65;;;6.47;;
29906;SDS011;16776;50.958;10.994;2024-02-26T12:48:58;18.98;;;8.20;;
29906;SDS011;16776;50.958;10.994;2024-02-26T12:51:26;9.57;;;6.50;;
29906;SDS011;16776;50.958;10.994;2024-02-26T12:53:53;11.27;;;5.85;;
29906;SDS011;16776;50.958;10.994;2024-02-26T12:56:21;8.73;;;6.22;;
29906;SDS011;16776;50.958;10.994;2024-02-26T12:58:48;9.88;;;6.30;;
29906;SDS011;16776;50.958;10.994;2024-02-26T13:01:16;9.13;;;5.97;;
29906;SDS011;16776;50.958;10.994;2024-02-26T13:03:46;8.05;;;5.20;;
29906;SDS011;16776;50.958;10.994;2024-02-26T13:06:13;9.52;;;5.55;;
29906;SDS011;16776;50.958;10.994;2024-02-26T13:08:41;8.77;;;5.70;;
29906;SDS011;16776;50.958;10.994;2024-02-26T13:11:08;9.15;;;5.97;;
29906;SDS011;16776;50.958;10.994;2024-02-26T13:13:34;8.25;;;5.70;;
29906;SDS011;16776;50.958;10.994;2024-02-26T13:16:01;6.75;;;4.95;;
29906;SDS011;16776;50.958;10.994;2024-02-26T13:18:29;9.18;;;5.95;;
29906;SDS011;16776;50.958;10.994;2024-02-26T13:21:06;9.60;;;5.80;;
29906;SDS011;16776;50.958;10.994;2024-02-26T13:23:34;8.80;;;5.82;;
29906;SDS011;16776;50.958;10.994;2024-02-26T13:26:02;8.27;;;6.15;;
29906;SDS011;16776;50.958;10.994;2024-02-26T13:28:28;9.05;;;5.13;;
29906;SDS011;16776;50.958;10.994;2024-02-26T13:30:55;8.43;;;5.55;;
29906;SDS011;16776;50.958;10.994;2024-02-26T13:33:23;9.40;;;6.15;;
29906;SDS011;16776;50.958;10.994;2024-02-26T13:35:50;10.27;;;6.97;;
29906;SDS011;16776;50.958;10.994;2024-02-26T13:38:17;9.48;;;6.18;;
29906;SDS011;16776;50.958;10.994;2024-02-26T13:40:43;10.13;;;6.68;;
29906;SDS011;16776;50.958;10.994;2024-02-26T13:43:11;8.13;;;6.03;;
29906;SDS011;16776;50.958;10.994;2024-02-26T13:45:38;8.52;;;5.57;;
29906;SDS011;16776;50.958;10.994;2024-02-26T13:48:06;12.35;;;6.15;;
29906;SDS011;16776;50.958;10.994;2024-02-26T13:50:35;7.55;;;5.60;;
29906;SDS011;16776;50.958;10.994;2024-02-26T13:53:02;7.85;;;5.88;;
29906;SDS011;16776;50.958;10.994;2024-02-26T13:55:29;9.52;;;6.22;;
29906;SDS011;16776;50.958;10.994;2024-02-26T13:57:57;7.80;;;5.82;;
29906;SDS011;16776;50.958;10.994;2024-02-26T14:00:27;7.25;;;5.60;;
29906;SDS011;16776;50.958;10.994;2024-02-26T14:02:56;9.32;;;6.72;;
29906;SDS011;16776;50.958;10.994;2024-02-26T14:05:23;7.97;;;6.15;;
29906;SDS011;16776;50.958;10.994;2024-02-26T14:07:50;7.82;;;5.95;;
29906;SDS011;16776;50.958;10.994;2024-02-26T14:10:17;9.25;;;6.75;;
29906;SDS011;16776;50.958;10.994;2024-02-26T14:12:43;11.18;;;5.68;;
29906;SDS011;16776;50.958;10.994;2024-02-26T14:15:10;8.50;;;6.13;;
29906;SDS011;16776;50.958;10.994;2024-02-26T14:17:38;8.10;;;6.22;;
29906;SDS011;16776;50.958;10.994;2024-02-26T14:20:05;8.95;;;6.07;;
29906;SDS011;16776;50.958;10.994;2024-02-26T14:22:34;8.35;;;5.75;;
29906;SDS011;16776;50.958;10.994;2024-02-26T14:25:00;7.30;;;5.10;;
29906;SDS011;16776;50.958;10.994;2024-02-26T14:27:27;8.82;;;5.85;;
29906;SDS011;16776;50.958;10.994;2024-02-26T14:29:54;8.18;;;6.03;;
29906;SDS011;16776;50.958;10.994;2024-02-26T14:32:21;8.45;;;5.63;;
29906;SDS011;16776;50.958;10.994;2024-02-26T14:34:49;8.98;;;6.30;;
29906;SDS011;16776;50.958;10.994;2024-02-26T14:37:15;8.32;;;5.63;;
29906;SDS011;16776;50.958;10.994;2024-02-26T14:39:42;6.13;;;5.20;;
29906;SDS011;16776;50.958;10.994;2024-02-26T14:42:09;8.15;;;5.45;;